createdAt,value
2022-10-11T00:00:37.320Z,10.90
2022-10-11T00:03:05.878Z,11.00
2022-10-11T00:05:36.922Z,9.00
2022-10-11T00:08:05.916Z,10.10
2022-10-11T00:10:37.693Z,11.47
2022-10-11T00:13:06.545Z,9.20
2022-10-11T00:15:35.679Z,7.53
2022-10-11T00:18:05.516Z,13.83
2022-10-11T00:20:37.217Z,8.80
2022-10-11T00:23:05.673Z,10.67
2022-10-11T00:25:35.745Z,9.47
2022-10-11T00:28:04.350Z,10.83
2022-10-11T00:30:33.935Z,9.10
2022-10-11T00:33:03.118Z,11.20
2022-10-11T00:35:31.527Z,7.93
2022-10-11T00:38:00.685Z,7.23
2022-10-11T00:40:45.909Z,11.20
2022-10-11T00:43:17.630Z,11.73
2022-10-11T00:46:08.479Z,9.13
2022-10-11T00:48:41.596Z,7.67
2022-10-11T00:51:18.179Z,6.60
2022-10-11T00:53:49.480Z,7.13
2022-10-11T00:56:29.145Z,8.40
2022-10-11T00:58:58.499Z,7.50
2022-10-11T01:01:27.382Z,7.67
2022-10-11T01:03:57.036Z,11.90
2022-10-11T01:06:25.703Z,8.63
2022-10-11T01:08:54.737Z,7.93
2022-10-11T01:11:26.589Z,7.47
2022-10-11T01:14:19.066Z,6.77
2022-10-11T01:16:58.798Z,8.43
2022-10-11T01:20:02.597Z,10.73
2022-10-11T01:22:54.501Z,9.30
2022-10-11T01:25:32.990Z,9.60
2022-10-11T01:28:17.814Z,7.10
2022-10-11T01:30:48.074Z,7.37
2022-10-11T01:33:27.340Z,7.30
2022-10-11T01:36:04.643Z,5.77
2022-10-11T01:38:39.017Z,5.10
2022-10-11T01:41:10.420Z,5.13
2022-10-11T01:43:40.454Z,4.63
2022-10-11T01:46:11.695Z,7.23
2022-10-11T01:48:50.777Z,9.27
2022-10-11T01:51:21.947Z,3.40
2022-10-11T01:54:20.473Z,4.93
2022-10-11T01:57:14.593Z,6.27
2022-10-11T01:59:56.970Z,7.03
2022-10-11T02:02:37.051Z,3.20
2022-10-11T02:05:12.747Z,7.43
2022-10-11T02:07:45.936Z,3.90
2022-10-11T02:10:18.195Z,7.17
2022-10-11T02:12:53.004Z,8.00
2022-10-11T02:15:23.784Z,6.83
2022-10-11T02:17:58.581Z,3.67
2022-10-11T02:20:29.371Z,6.07
2022-10-11T02:23:01.740Z,5.40
2022-10-11T02:25:33.740Z,5.77
2022-10-11T02:28:05.464Z,7.70
2022-10-11T02:30:35.127Z,5.33
2022-10-11T02:33:07.671Z,5.37
2022-10-11T02:35:38.880Z,7.07
2022-10-11T02:38:16.090Z,6.30
2022-10-11T02:40:47.766Z,4.97
2022-10-11T02:43:24.048Z,6.43
2022-10-11T02:45:55.148Z,6.67
2022-10-11T02:48:27.677Z,7.23
2022-10-11T02:50:57.371Z,6.80
2022-10-11T02:53:27.087Z,6.53
2022-10-11T02:55:56.742Z,7.17
2022-10-11T02:58:25.913Z,5.10
2022-10-11T03:00:54.356Z,7.03
2022-10-11T03:03:22.759Z,8.83
2022-10-11T03:05:52.769Z,7.13
2022-10-11T03:08:21.029Z,4.97
2022-10-11T03:10:49.467Z,5.43
2022-10-11T03:13:18.588Z,3.93
2022-10-11T03:16:01.950Z,4.97
2022-10-11T03:18:31.291Z,6.83
2022-10-11T03:21:00.887Z,9.37
2022-10-11T03:23:29.294Z,4.47
2022-10-11T03:25:58.091Z,6.13
2022-10-11T03:28:26.533Z,8.30
2022-10-11T03:30:55.325Z,4.23
2022-10-11T03:33:23.737Z,8.53
2022-10-11T03:35:52.208Z,5.37
2022-10-11T03:38:23.432Z,5.60
2022-10-11T03:40:52.232Z,6.23
2022-10-11T03:43:20.516Z,7.63
2022-10-11T03:45:49.565Z,4.70
2022-10-11T03:48:17.932Z,4.77
2022-10-11T03:50:46.580Z,5.20
2022-10-11T03:53:15.005Z,3.87
2022-10-11T03:55:45.442Z,6.00
2022-10-11T03:58:13.873Z,8.20
2022-10-11T04:00:42.290Z,5.37
2022-10-11T04:03:10.523Z,5.97
2022-10-11T04:05:38.971Z,7.47
2022-10-11T04:08:11.910Z,5.13
2022-10-11T04:10:41.707Z,9.33
2022-10-11T04:13:12.985Z,7.23
2022-10-11T04:15:42.229Z,7.33
2022-10-11T04:18:10.895Z,5.30
2022-10-11T04:20:39.457Z,9.70
2022-10-11T04:23:07.733Z,9.67
2022-10-11T04:25:36.128Z,9.47
2022-10-11T04:28:04.377Z,5.03
2022-10-11T04:30:34.121Z,8.03
2022-10-11T04:33:02.764Z,7.37
2022-10-11T04:35:31.329Z,4.37
2022-10-11T04:37:59.666Z,7.67
2022-10-11T04:40:28.414Z,4.50
2022-10-11T04:42:57.340Z,5.40
2022-10-11T04:45:25.721Z,7.03
2022-10-11T04:47:55.552Z,8.10
2022-10-11T04:50:23.842Z,7.23
2022-10-11T04:52:53.277Z,7.73
2022-10-11T04:55:21.524Z,7.10
2022-10-11T04:57:50.776Z,9.77
2022-10-11T05:00:23.095Z,8.07
2022-10-11T05:02:52.925Z,5.07
2022-10-11T05:05:22.987Z,11.73
2022-10-11T05:07:51.204Z,6.33
2022-10-11T05:10:19.857Z,8.63
2022-10-11T05:12:48.251Z,6.00
2022-10-11T05:15:16.608Z,8.90
2022-10-11T05:17:45.023Z,10.20
2022-10-11T05:20:13.689Z,6.77
2022-10-11T05:22:44.130Z,7.77
2022-10-11T05:25:12.312Z,8.47
2022-10-11T05:27:40.720Z,7.57
2022-10-11T05:30:09.974Z,6.13
2022-10-11T05:32:38.363Z,6.73
2022-10-11T05:35:08.069Z,8.63
2022-10-11T05:37:36.539Z,8.67
2022-10-11T05:40:07.628Z,6.60
2022-10-11T05:42:35.943Z,10.67
2022-10-11T05:45:04.433Z,8.47
2022-10-11T05:47:32.862Z,7.97
2022-10-11T05:50:01.318Z,9.97
2022-10-11T05:52:29.972Z,8.07
2022-10-11T05:54:58.269Z,6.97
2022-10-11T05:57:27.964Z,9.10
2022-10-11T05:59:56.297Z,8.37
2022-10-11T06:02:24.836Z,6.87
2022-10-11T06:04:53.444Z,7.87
2022-10-11T06:07:21.763Z,6.80
2022-10-11T06:09:50.104Z,6.17
2022-10-11T06:12:19.039Z,6.00
2022-10-11T06:14:49.761Z,7.90
2022-10-11T06:17:18.328Z,9.07
2022-10-11T06:19:46.906Z,8.00
2022-10-11T06:22:15.614Z,6.33
2022-10-11T06:24:44.534Z,9.40
2022-10-11T06:27:14.240Z,8.57
2022-10-11T06:29:42.626Z,8.63
2022-10-11T06:32:13.776Z,12.23
2022-10-11T06:34:42.158Z,7.80
2022-10-11T06:37:10.419Z,10.40
2022-10-11T06:39:38.867Z,5.10
2022-10-11T06:42:07.757Z,7.87
2022-10-11T06:44:36.321Z,12.90
2022-10-11T06:47:06.109Z,7.47
2022-10-11T06:49:36.357Z,10.77
2022-10-11T06:52:05.051Z,8.43
2022-10-11T06:54:33.303Z,11.13
2022-10-11T06:57:01.633Z,6.80
2022-10-11T06:59:29.995Z,11.73
2022-10-11T07:01:58.421Z,10.83
2022-10-11T07:04:28.706Z,10.27
2022-10-11T07:06:58.383Z,6.93
2022-10-11T07:09:26.983Z,9.00
2022-10-11T07:11:55.641Z,10.30
2022-10-11T07:14:23.879Z,17.03
2022-10-11T07:16:52.209Z,10.97
2022-10-11T07:19:21.340Z,14.23
2022-10-11T07:21:50.364Z,10.13
2022-10-11T07:24:19.914Z,8.47
2022-10-11T07:26:48.822Z,9.43
2022-10-11T07:29:17.132Z,8.87
2022-10-11T07:31:45.600Z,10.83
2022-10-11T07:34:14.258Z,11.67
2022-10-11T07:36:42.741Z,9.57
2022-10-11T07:39:11.180Z,12.57
2022-10-11T07:41:45.700Z,10.87
2022-10-11T07:44:14.907Z,12.83
2022-10-11T07:46:43.399Z,11.87
2022-10-11T07:49:11.816Z,10.33
2022-10-11T07:51:40.098Z,8.90
2022-10-11T07:54:08.674Z,8.40
2022-10-11T07:56:39.932Z,6.67
2022-10-11T07:59:11.741Z,10.90
2022-10-11T08:01:40.219Z,11.30
2022-10-11T08:04:09.700Z,13.13
2022-10-11T08:06:38.252Z,6.63
2022-10-11T08:09:06.999Z,12.07
2022-10-11T08:11:37.752Z,11.00
2022-10-11T08:14:11.440Z,7.03
2022-10-11T08:16:41.199Z,8.57
2022-10-11T08:19:10.971Z,12.03
2022-10-11T08:21:39.726Z,9.73
2022-10-11T08:24:09.064Z,11.13
2022-10-11T08:26:38.191Z,8.80
2022-10-11T08:29:06.722Z,10.93
2022-10-11T08:31:36.757Z,8.53
2022-10-11T08:34:05.415Z,7.37
2022-10-11T08:36:33.841Z,10.50
2022-10-11T08:39:02.864Z,8.40
2022-10-11T08:41:38.801Z,7.50
2022-10-11T08:44:51.755Z,7.17
2022-10-11T08:47:28.135Z,9.03
2022-10-11T08:49:57.221Z,8.63
2022-10-11T08:52:29.755Z,7.20
2022-10-11T08:55:03.954Z,9.30
2022-10-11T08:57:36.520Z,10.27
2022-10-11T09:00:08.645Z,9.10
2022-10-11T09:03:06.776Z,12.67
2022-10-11T09:05:37.312Z,8.03
2022-10-11T09:08:11.570Z,9.33
2022-10-11T09:10:56.921Z,8.57
2022-10-11T09:13:49.414Z,14.13
2022-10-11T09:16:28.066Z,5.87
2022-10-11T09:19:14.839Z,7.03
2022-10-11T09:21:53.190Z,8.60
2022-10-11T09:24:37.767Z,7.90
2022-10-11T09:27:15.506Z,9.53
2022-10-11T09:29:54.086Z,6.63
2022-10-11T09:32:22.589Z,8.20
2022-10-11T09:34:58.617Z,5.93
2022-10-11T09:37:35.158Z,5.50
2022-10-11T09:40:15.490Z,10.70
2022-10-11T09:42:43.871Z,9.77
2022-10-11T09:45:20.495Z,6.27
2022-10-11T09:47:50.587Z,7.70
2022-10-11T09:50:25.782Z,9.23
2022-10-11T09:52:57.630Z,6.33
2022-10-11T09:55:34.876Z,7.37
2022-10-11T09:58:04.752Z,8.93
2022-10-11T10:00:34.516Z,7.07
2022-10-11T10:03:04.736Z,7.63
2022-10-11T10:05:37.050Z,9.13
2022-10-11T10:08:22.943Z,3.93
2022-10-11T10:11:01.622Z,7.40
2022-10-11T10:13:45.930Z,4.70
2022-10-11T10:16:23.411Z,8.80
2022-10-11T10:18:54.335Z,6.13
2022-10-11T10:21:30.904Z,7.00
2022-10-11T10:24:03.097Z,6.27
2022-10-11T10:26:32.567Z,6.10
2022-10-11T10:29:18.509Z,8.37
2022-10-11T10:32:14.304Z,4.97
2022-10-11T10:34:57.652Z,7.73
2022-10-11T10:37:33.182Z,9.23
2022-10-11T10:40:07.423Z,6.50
2022-10-11T10:42:35.794Z,10.17
2022-10-11T10:45:11.898Z,6.60
2022-10-11T10:48:08.165Z,3.97
2022-10-11T10:50:48.675Z,4.20
2022-10-11T10:53:26.618Z,4.80
2022-10-11T10:56:05.262Z,4.63
2022-10-11T10:58:46.484Z,5.47
2022-10-11T11:01:21.186Z,5.27
2022-10-11T11:03:56.658Z,5.43
2022-10-11T11:06:34.140Z,5.13
2022-10-11T11:09:23.322Z,5.40
2022-10-11T11:12:03.833Z,6.50
2022-10-11T11:15:01.859Z,4.97
2022-10-11T11:17:47.932Z,6.47
2022-10-11T11:20:34.235Z,5.60
2022-10-11T11:23:13.452Z,4.47
2022-10-11T11:25:50.046Z,6.97
2022-10-11T11:28:43.090Z,4.70
2022-10-11T11:31:24.558Z,5.83
2022-10-11T11:34:02.197Z,5.90
2022-10-11T11:36:40.263Z,6.40
2022-10-11T11:39:15.585Z,7.83
2022-10-11T11:41:50.465Z,5.63
2022-10-11T11:44:27.313Z,5.53
2022-10-11T11:47:00.908Z,7.90
2022-10-11T11:49:36.562Z,7.03
2022-10-11T11:52:07.624Z,6.50
2022-10-11T11:54:48.585Z,4.47
2022-10-11T11:57:28.718Z,4.83
2022-10-11T12:00:01.947Z,8.13
2022-10-11T12:02:45.305Z,4.60
2022-10-11T12:05:17.143Z,6.57
2022-10-11T12:07:53.060Z,5.40
2022-10-11T12:10:29.290Z,5.70
2022-10-11T12:13:32.432Z,4.70
2022-10-11T12:16:10.809Z,5.67
2022-10-11T12:18:51.917Z,6.00
2022-10-11T12:21:26.002Z,3.47
2022-10-11T12:23:56.622Z,4.40
2022-10-11T12:26:41.875Z,6.37
2022-10-11T12:29:42.133Z,4.97
2022-10-11T12:32:52.265Z,5.73
2022-10-11T12:36:04.119Z,6.73
2022-10-11T12:38:38.191Z,3.93
2022-10-11T12:41:39.174Z,5.67
2022-10-11T12:44:22.293Z,6.23
2022-10-11T12:47:22.378Z,6.90
2022-10-11T12:50:03.681Z,6.27
2022-10-11T12:52:41.667Z,7.17
2022-10-11T12:55:29.122Z,6.23
2022-10-11T12:58:20.335Z,5.23
2022-10-11T13:01:27.455Z,5.30
2022-10-11T13:04:05.228Z,7.47
2022-10-11T13:06:38.268Z,7.37
2022-10-11T13:09:16.899Z,5.30
2022-10-11T13:11:50.394Z,6.13
2022-10-11T13:14:22.473Z,6.87
2022-10-11T13:16:59.985Z,5.43
2022-10-11T13:19:32.003Z,4.77
2022-10-11T13:22:08.678Z,4.87
2022-10-11T13:24:39.443Z,5.50
2022-10-11T13:27:09.034Z,5.33
2022-10-11T13:29:42.970Z,7.43
2022-10-11T13:32:16.485Z,4.57
2022-10-11T13:34:50.251Z,8.80
2022-10-11T13:37:22.496Z,7.13
2022-10-11T13:39:53.538Z,7.57
2022-10-11T13:42:26.535Z,5.13
2022-10-11T13:44:57.728Z,6.03
2022-10-11T13:47:30.028Z,7.30
2022-10-11T13:50:11.957Z,5.07
2022-10-11T13:52:57.149Z,5.53
2022-10-11T13:55:35.251Z,3.93
2022-10-11T13:58:14.974Z,4.30
2022-10-11T14:00:54.775Z,6.80
2022-10-11T14:03:27.561Z,4.10
2022-10-11T14:06:00.466Z,8.10
2022-10-11T14:08:34.949Z,7.10
2022-10-11T14:11:06.503Z,5.67
2022-10-11T14:13:38.712Z,6.47
2022-10-11T14:16:09.866Z,6.10
2022-10-11T14:18:49.308Z,6.17
2022-10-11T14:21:31.695Z,5.00
2022-10-11T14:24:02.419Z,4.17
2022-10-11T14:26:35.149Z,5.03
2022-10-11T14:29:08.301Z,6.67
2022-10-11T14:31:41.461Z,5.50
2022-10-11T14:34:17.624Z,6.23
2022-10-11T14:36:48.887Z,5.83
2022-10-11T14:39:19.750Z,4.87
2022-10-11T14:41:49.478Z,8.13
2022-10-11T14:44:19.108Z,16.97
2022-10-11T14:46:49.200Z,9.40
2022-10-11T14:49:23.271Z,4.53
2022-10-11T14:51:54.936Z,5.40
2022-10-11T14:54:25.072Z,4.93
2022-10-11T14:56:55.394Z,8.60
2022-10-11T14:59:26.565Z,5.33
2022-10-11T15:01:56.279Z,4.83
2022-10-11T15:04:26.064Z,3.63
2022-10-11T15:06:58.507Z,4.60
2022-10-11T15:09:27.109Z,6.20
2022-10-11T15:11:55.801Z,13.23
2022-10-11T15:14:26.582Z,15.73
2022-10-11T15:16:56.190Z,12.43
2022-10-11T15:19:26.072Z,6.43
2022-10-11T15:21:56.986Z,8.93
2022-10-11T15:24:25.922Z,5.17
2022-10-11T15:26:54.204Z,9.73
2022-10-11T15:29:25.028Z,5.07
2022-10-11T15:31:53.682Z,5.83
2022-10-11T15:34:21.975Z,6.23
2022-10-11T15:36:52.028Z,5.17
2022-10-11T15:39:31.888Z,6.10
2022-10-11T15:42:00.695Z,3.93
2022-10-11T15:44:30.128Z,7.17
2022-10-11T15:46:58.434Z,18.50
2022-10-11T15:49:28.062Z,7.80
2022-10-11T15:51:56.621Z,6.10
2022-10-11T15:54:25.682Z,5.73
2022-10-11T15:56:55.354Z,9.67
2022-10-11T15:59:25.274Z,12.87
2022-10-11T16:01:56.160Z,5.60
2022-10-11T16:04:27.011Z,8.57
2022-10-11T16:06:57.197Z,6.13
2022-10-11T16:09:26.307Z,5.97
2022-10-11T16:11:56.405Z,10.17
2022-10-11T16:14:24.620Z,19.20
2022-10-11T16:16:53.332Z,19.50
2022-10-11T16:19:22.107Z,12.93
2022-10-11T16:21:50.374Z,7.73
2022-10-11T16:24:19.050Z,8.73
2022-10-11T16:26:47.735Z,8.30
2022-10-11T16:29:17.493Z,7.70
2022-10-11T16:31:45.891Z,8.73
2022-10-11T16:34:14.444Z,11.27
2022-10-11T16:36:44.646Z,5.83
2022-10-11T16:39:15.193Z,8.33
2022-10-11T16:41:43.956Z,8.87
2022-10-11T16:44:16.064Z,6.77
2022-10-11T16:46:48.430Z,6.83
2022-10-11T16:49:18.330Z,7.20
2022-10-11T16:51:47.555Z,7.37
2022-10-11T16:54:20.267Z,4.90
2022-10-11T16:56:49.512Z,5.37
2022-10-11T16:59:19.412Z,7.33
2022-10-11T17:01:50.444Z,4.40
2022-10-11T17:04:19.186Z,7.20
2022-10-11T17:06:48.332Z,6.87
2022-10-11T17:09:17.083Z,5.47
2022-10-11T17:11:45.887Z,5.53
2022-10-11T17:14:15.039Z,6.13
2022-10-11T17:16:44.301Z,6.80
2022-10-11T17:19:15.451Z,5.53
2022-10-11T17:21:44.194Z,4.83
2022-10-11T17:24:13.138Z,5.87
2022-10-11T17:26:41.689Z,4.13
2022-10-11T17:29:15.462Z,6.50
2022-10-11T17:31:49.007Z,6.37
2022-10-11T17:34:20.166Z,6.33
2022-10-11T17:36:49.139Z,5.17
2022-10-11T17:39:22.330Z,5.17
2022-10-11T17:41:53.449Z,10.57
2022-10-11T17:44:22.766Z,20.43
2022-10-11T17:46:51.980Z,59.90
2022-10-11T17:49:22.151Z,19.63
2022-10-11T17:51:51.433Z,18.57
2022-10-11T17:54:21.094Z,17.50
2022-10-11T17:56:50.387Z,12.97
2022-10-11T17:59:21.696Z,14.03
2022-10-11T18:01:52.180Z,25.93
2022-10-11T18:04:26.663Z,13.47
2022-10-11T18:06:55.567Z,16.17
2022-10-11T18:09:24.713Z,16.50
2022-10-11T18:11:53.755Z,15.30
2022-10-11T18:14:22.726Z,11.73
2022-10-11T18:16:51.089Z,8.57
2022-10-11T18:19:19.627Z,6.23
2022-10-11T18:21:49.629Z,5.30
2022-10-11T18:24:18.938Z,9.27
2022-10-11T18:26:47.441Z,6.20
2022-10-11T18:29:16.460Z,10.47
2022-10-11T18:31:44.820Z,8.07
2022-10-11T18:34:15.866Z,6.73
2022-10-11T18:36:44.362Z,8.30
2022-10-11T18:39:16.667Z,10.20
2022-10-11T18:41:45.951Z,7.63
2022-10-11T18:44:16.601Z,9.37
2022-10-11T18:46:46.108Z,9.13
2022-10-11T18:49:15.534Z,8.30
2022-10-11T18:51:46.005Z,8.23
2022-10-11T18:54:20.287Z,7.07
2022-10-11T18:56:50.099Z,12.03
2022-10-11T18:59:18.701Z,12.37
2022-10-11T19:01:48.180Z,12.43
2022-10-11T19:04:16.942Z,12.73
2022-10-11T19:06:48.435Z,12.40
2022-10-11T19:09:21.969Z,13.17
2022-10-11T19:11:51.366Z,11.60
2022-10-11T19:14:22.214Z,14.77
2022-10-11T19:16:52.332Z,15.20
2022-10-11T19:19:22.771Z,14.30
2022-10-11T19:21:51.570Z,13.67
2022-10-11T19:24:23.556Z,14.87
2022-10-11T19:26:54.123Z,14.37
2022-10-11T19:29:26.759Z,17.87
2022-10-11T19:31:56.748Z,12.43
2022-10-11T19:34:27.902Z,17.93
2022-10-11T19:36:57.017Z,16.57
2022-10-11T19:39:26.791Z,18.27
2022-10-11T19:41:55.376Z,17.47
2022-10-11T19:44:24.043Z,16.70
2022-10-11T19:46:53.267Z,14.13
2022-10-11T19:49:25.055Z,13.70
2022-10-11T19:51:55.487Z,16.17
2022-10-11T19:54:25.868Z,13.07
2022-10-11T19:56:54.192Z,14.77
2022-10-11T19:59:22.511Z,12.73
2022-10-11T20:01:53.111Z,13.60
2022-10-11T20:04:50.639Z,9.87
2022-10-11T20:07:10.991Z,10.17
2022-10-11T20:09:41.117Z,12.57
2022-10-11T20:12:09.895Z,14.60
2022-10-11T20:14:38.150Z,14.57
2022-10-11T20:17:06.427Z,12.00
2022-10-11T20:19:35.428Z,12.50
2022-10-11T20:22:03.904Z,10.43
2022-10-11T20:24:34.384Z,14.07
2022-10-11T20:27:06.358Z,12.47
2022-10-11T20:29:34.671Z,10.23
2022-10-11T20:32:03.126Z,11.83
2022-10-11T20:34:31.492Z,9.50
2022-10-11T20:36:59.982Z,13.13
2022-10-11T20:39:28.956Z,10.50
2022-10-11T20:41:57.451Z,11.13
2022-10-11T20:44:27.293Z,12.70
2022-10-11T20:46:56.200Z,12.33
2022-10-11T20:49:26.361Z,11.87
2022-10-11T20:51:58.587Z,11.90
2022-10-11T20:54:30.008Z,13.13
2022-10-11T20:56:59.328Z,14.27
2022-10-11T20:59:29.200Z,13.13
2022-10-11T21:01:58.257Z,13.50
2022-10-11T21:04:30.969Z,13.23
2022-10-11T21:06:59.441Z,13.47
2022-10-11T21:09:27.772Z,12.47
2022-10-11T21:11:56.100Z,10.37
2022-10-11T21:14:24.498Z,14.37
2022-10-11T21:16:54.311Z,16.23
2022-10-11T21:19:22.627Z,13.50
2022-10-11T21:21:53.744Z,13.93
2022-10-11T21:24:22.714Z,19.30
2022-10-11T21:26:51.499Z,15.50
2022-10-11T21:29:19.884Z,20.70
2022-10-11T21:31:48.437Z,18.13
2022-10-11T21:34:18.515Z,19.47
2022-10-11T21:36:47.441Z,16.83
2022-10-11T21:39:16.273Z,20.43
2022-10-11T21:41:44.574Z,18.53
2022-10-11T21:44:12.913Z,18.63
2022-10-11T21:47:05.538Z,19.10
2022-10-11T21:49:31.520Z,18.63
2022-10-11T21:52:00.154Z,15.67
2022-10-11T21:54:28.532Z,17.80
2022-10-11T21:56:57.159Z,15.23
2022-10-11T21:59:25.385Z,13.80
2022-10-11T22:01:57.012Z,14.23
2022-10-11T22:04:30.806Z,12.33
2022-10-11T22:06:59.782Z,13.93
2022-10-11T22:09:29.731Z,10.33
2022-10-11T22:11:58.727Z,11.93
2022-10-11T22:14:34.621Z,13.43
2022-10-11T22:17:04.091Z,14.83
2022-10-11T22:19:34.365Z,12.77
2022-10-11T22:22:03.044Z,14.53
2022-10-11T22:24:32.767Z,12.97
2022-10-11T22:27:05.168Z,12.87
2022-10-11T22:29:36.645Z,11.63
2022-10-11T22:32:06.718Z,11.67
2022-10-11T22:34:37.209Z,9.87
2022-10-11T22:37:05.713Z,10.43
2022-10-11T22:39:34.452Z,10.33
2022-10-11T22:42:03.633Z,10.23
2022-10-11T22:44:31.928Z,11.43
2022-10-11T22:47:03.468Z,12.37
2022-10-11T22:49:32.475Z,9.83
2022-10-11T22:52:02.590Z,10.53
2022-10-11T22:54:32.260Z,12.37
2022-10-11T22:57:02.886Z,12.40
2022-10-11T22:59:31.982Z,12.53
2022-10-11T23:02:02.429Z,9.97
2022-10-11T23:04:32.147Z,12.57
2022-10-11T23:07:05.458Z,11.63
2022-10-11T23:09:35.226Z,10.57
2022-10-11T23:12:04.364Z,12.23
2022-10-11T23:14:34.422Z,13.63
2022-10-11T23:17:04.683Z,15.70
2022-10-11T23:19:34.628Z,12.77
2022-10-11T23:22:03.271Z,14.47
2022-10-11T23:24:32.895Z,11.27
2022-10-11T23:27:01.746Z,15.23
2022-10-11T23:29:32.772Z,15.07
2022-10-11T23:32:01.078Z,15.70
2022-10-11T23:34:29.556Z,19.17
2022-10-11T23:37:00.627Z,18.33
2022-10-11T23:39:36.206Z,19.47
2022-10-11T23:42:04.602Z,22.53
2022-10-11T23:44:33.061Z,19.50
2022-10-11T23:47:02.859Z,16.43
2022-10-11T23:49:31.139Z,19.50
2022-10-11T23:51:59.385Z,18.17
2022-10-11T23:54:28.248Z,22.60
2022-10-11T23:56:58.917Z,20.20
2022-10-11T23:59:27.213Z,19.00
